Iron Chieftain — VNVD — position and weather

sailwx.info

Track history (hours):
 
Tides and Currents Weather Stations Pressure Air Temp Water Temp Dewpoint Dewpoint Depression Visibility Wind Speed Wind Dir Waves Ship Positions

Iron Chieftain

Last reported at 2018-May-18 12:00 UTC. Time now 2018-May-21 18:58 UTC.
Position S 24°54' E 153°42'.

Length 202 m; beam 32 m.

Type: Cargo ship. MMSI: 503000069.

Wind from 080 at 12 knots

Barometer 1019.4 mb
Air temperature 22.0 ° C
Visibility: greater than 10.8 NM
Dewpoint 14.4 ° C
Water temperature 25.0 ° C

Date/timePositionNaut miles runAvg speedWind from/ knotsBaromVisibWave heightAir tempDewpointWater temp
2018-May-18 12:00S 24°54' E 153°42'12812.5 080 / 121019.410.8 22.014.425.0
2018-May-18 01:45S 27°02' E 153°48'2212.5
2018-May-18 00:00S 27°24' E 153°48'1410.7 030 / 101021.810.8 21.016.024.0
2018-May-17 22:43S 27°37' E 153°51'211.6
2018-May-17 22:30S 27°40' E 153°51'511.0
2018-May-17 22:00S 27°45' E 153°50'611.4
2018-May-17 21:31S 27°51' E 153°51'11111.7
2018-May-17 12:00S 29°42' E 153°42'13110.9 030 / 51022.910.8 19.015.623.0
2018-May-17 00:00S 31°48' E 153°00'2910.5 290 / 121025.610.8 16.014.323.0
2018-May-16 21:15S 32°17' E 152°56'410.0
2018-May-16 20:52S 32°20' E 152°55'3 9.7
2018-May-16 20:31S 32°24' E 152°54'5 9.7
2018-May-16 20:00S 32°28' E 152°52'5 9.7
2018-May-16 19:30S 32°33' E 152°51'5 9.7
2018-May-16 19:00S 32°38' E 152°49'5 9.4
2018-May-16 18:31S 32°41' E 152°45'5 9.1
2018-May-16 18:00S 32°45' E 152°42'4 8.8
2018-May-16 17:31S 32°48' E 152°39'4 8.4
2018-May-16 17:00S 32°51' E 152°36'5 9.3
2018-May-16 16:31S 32°55' E 152°33'510.0
2018-May-16 16:00S 32°60' E 152°30'510.3
2018-May-16 15:31S 33°04' E 152°26'510.4
2018-May-16 15:01S 33°08' E 152°23'5 9.9
2018-May-16 14:31S 33°12' E 152°19'5 9.9
2018-May-16 13:59S 33°16' E 152°15'2211.5
2018-May-16 12:06S 33°33' E 151°60'650.3
2018-May-16 12:00S 33°30' E 151°54'6324.7 120 / 81027.0 5.4 17.011.521.0
2018-May-16 11:58S 33°35' E 151°59'712.3
2018-May-16 11:27S 33°41' E 151°55'511.9
2018-May-16 11:00S 33°45' E 151°51'611.8
2018-May-16 10:31S 33°49' E 151°46'611.9
2018-May-16 10:00S 33°54' E 151°42'611.9
2018-May-16 09:31S 33°59' E 151°38'611.6
2018-May-16 09:01S 34°03' E 151°33'611.5
2018-May-16 08:30S 34°08' E 151°29'611.6
2018-May-16 08:01S 34°12' E 151°25'1011.7
2018-May-16 07:10S 34°17' E 151°14'  
2018-May-11 12:00S 35°48' E 150°24'13711.5 250 / 221004.7 2.2 13.5 8.520.0
2018-May-11 00:00S 38°00' E 149°36'1517.2 300 / 351004.8 5.4 12.0 7.917.0
2018-May-10 23:07S 38°08' E 149°20'312.0
2018-May-10 22:54S 38°10' E 149°17'612.1
2018-May-10 22:24S 38°13' E 149°11'512.3
2018-May-10 21:58S 38°16' E 149°06'612.1
2018-May-10 21:30S 38°20' E 149°00'612.2
2018-May-10 20:59S 38°24' E 148°54'612.1
2018-May-10 20:30S 38°28' E 148°48'612.0
2018-May-10 19:59S 38°32' E 148°42'9812.2
2018-May-10 12:00S 39°12' E 146°48'27711.5 280 / 261007.9 2.2 11.5 9.516.0
2018-May-09 12:00S 38°18' E 141°00'26010.8 230 / 371014.5 2.2 12.5 7.418.0
2018-May-08 12:00S 34°42' E 138°00'   020 / 51023.610.8 16.015.119.0
Track history (hours):
 
Tides and Currents Weather Stations Pressure Air Temp Water Temp Dewpoint Dewpoint Depression Visibility Wind Speed Wind Dir Waves Ship Positions

Iron Chieftain

Last reported at 2018-May-18 12:00 UTC. Time now 2018-May-21 18:58 UTC.
Position S 24°54' E 153°42'.

Length 202 m; beam 32 m.

Type: Cargo ship. MMSI: 503000069.

Wind from 080 at 12 knots

Barometer 1019.4 mb
Air temperature 22.0 ° C
Visibility: greater than 10.8 NM
Dewpoint 14.4 ° C
Water temperature 25.0 ° C

Date/timePositionNaut miles runAvg speedWind from/ knotsBaromVisibWave heightAir tempDewpointWater temp
2018-May-18 12:00S 24°54' E 153°42'12812.5 080 / 121019.410.8 22.014.425.0
2018-May-18 01:45S 27°02' E 153°48'2212.5
2018-May-18 00:00S 27°24' E 153°48'1410.7 030 / 101021.810.8 21.016.024.0
2018-May-17 22:43S 27°37' E 153°51'211.6
2018-May-17 22:30S 27°40' E 153°51'511.0
2018-May-17 22:00S 27°45' E 153°50'611.4
2018-May-17 21:31S 27°51' E 153°51'11111.7
2018-May-17 12:00S 29°42' E 153°42'13110.9 030 / 51022.910.8 19.015.623.0
2018-May-17 00:00S 31°48' E 153°00'2910.5 290 / 121025.610.8 16.014.323.0
2018-May-16 21:15S 32°17' E 152°56'410.0
2018-May-16 20:52S 32°20' E 152°55'3 9.7
2018-May-16 20:31S 32°24' E 152°54'5 9.7
2018-May-16 20:00S 32°28' E 152°52'5 9.7
2018-May-16 19:30S 32°33' E 152°51'5 9.7
2018-May-16 19:00S 32°38' E 152°49'5 9.4
2018-May-16 18:31S 32°41' E 152°45'5 9.1
2018-May-16 18:00S 32°45' E 152°42'4 8.8
2018-May-16 17:31S 32°48' E 152°39'4 8.4
2018-May-16 17:00S 32°51' E 152°36'5 9.3
2018-May-16 16:31S 32°55' E 152°33'510.0
2018-May-16 16:00S 32°60' E 152°30'510.3
2018-May-16 15:31S 33°04' E 152°26'510.4
2018-May-16 15:01S 33°08' E 152°23'5 9.9
2018-May-16 14:31S 33°12' E 152°19'5 9.9
2018-May-16 13:59S 33°16' E 152°15'2211.5
2018-May-16 12:06S 33°33' E 151°60'650.3
2018-May-16 12:00S 33°30' E 151°54'6324.7 120 / 81027.0 5.4 17.011.521.0
2018-May-16 11:58S 33°35' E 151°59'712.3
2018-May-16 11:27S 33°41' E 151°55'511.9
2018-May-16 11:00S 33°45' E 151°51'611.8
2018-May-16 10:31S 33°49' E 151°46'611.9
2018-May-16 10:00S 33°54' E 151°42'611.9
2018-May-16 09:31S 33°59' E 151°38'611.6
2018-May-16 09:01S 34°03' E 151°33'611.5
2018-May-16 08:30S 34°08' E 151°29'611.6
2018-May-16 08:01S 34°12' E 151°25'1011.7
2018-May-16 07:10S 34°17' E 151°14'  
2018-May-11 12:00S 35°48' E 150°24'13711.5 250 / 221004.7 2.2 13.5 8.520.0
2018-May-11 00:00S 38°00' E 149°36'1517.2 300 / 351004.8 5.4 12.0 7.917.0
2018-May-10 23:07S 38°08' E 149°20'312.0
2018-May-10 22:54S 38°10' E 149°17'612.1
2018-May-10 22:24S 38°13' E 149°11'512.3
2018-May-10 21:58S 38°16' E 149°06'612.1
2018-May-10 21:30S 38°20' E 149°00'612.2
2018-May-10 20:59S 38°24' E 148°54'612.1
2018-May-10 20:30S 38°28' E 148°48'612.0
2018-May-10 19:59S 38°32' E 148°42'9812.2
2018-May-10 12:00S 39°12' E 146°48'27711.5 280 / 261007.9 2.2 11.5 9.516.0
2018-May-09 12:00S 38°18' E 141°00'26010.8 230 / 371014.5 2.2 12.5 7.418.0
2018-May-08 12:00S 34°42' E 138°00'   020 / 51023.610.8 16.015.119.0

Dump ship's entire track history